createdAt,value
2023-05-05T00:02:30.383Z,3.17
2023-05-05T00:05:15.651Z,3.30
2023-05-05T00:08:00.526Z,3.40
2023-05-05T00:10:47.068Z,3.05
2023-05-05T00:13:31.775Z,2.63
2023-05-05T00:16:17.436Z,3.10
2023-05-05T00:19:02.541Z,3.10
2023-05-05T00:21:47.680Z,3.05
2023-05-05T00:24:32.517Z,2.95
2023-05-05T00:27:17.660Z,3.30
2023-05-05T00:30:02.460Z,3.23
2023-05-05T00:32:48.602Z,3.20
2023-05-05T00:35:34.111Z,3.13
2023-05-05T00:38:19.159Z,3.00
2023-05-05T00:41:04.128Z,3.28
2023-05-05T00:43:49.128Z,3.73
2023-05-05T00:46:34.785Z,3.40
2023-05-05T00:49:19.810Z,3.35
2023-05-05T00:52:06.475Z,2.97
2023-05-05T00:54:51.860Z,3.67
2023-05-05T00:57:37.002Z,3.30
2023-05-05T01:00:22.784Z,3.00
2023-05-05T01:03:08.152Z,3.35
2023-05-05T01:06:26.729Z,3.25
2023-05-05T01:09:26.058Z,3.38
2023-05-05T01:12:31.817Z,3.50
2023-05-05T01:15:41.541Z,3.17
2023-05-05T01:18:41.813Z,3.40
2023-05-05T01:21:43.044Z,3.05
2023-05-05T01:25:05.762Z,3.35
2023-05-05T01:28:09.594Z,3.40
2023-05-05T01:31:27.040Z,3.13
2023-05-05T01:34:16.521Z,3.47
2023-05-05T01:37:11.260Z,3.85
2023-05-05T01:40:01.616Z,3.53
2023-05-05T01:42:48.379Z,3.57
2023-05-05T01:45:37.851Z,3.60
2023-05-05T01:48:24.291Z,3.60
2023-05-05T01:51:10.306Z,3.17
2023-05-05T01:53:59.076Z,3.53
2023-05-05T01:56:46.078Z,3.70
2023-05-05T01:59:33.485Z,3.38
2023-05-05T02:02:20.682Z,3.42
2023-05-05T02:05:06.739Z,3.35
2023-05-05T02:07:54.898Z,3.63
2023-05-05T02:10:40.772Z,3.60
2023-05-05T02:13:28.554Z,3.53
2023-05-05T02:16:13.896Z,3.72
2023-05-05T02:19:04.894Z,3.90
2023-05-05T02:21:49.845Z,3.90
2023-05-05T02:24:35.556Z,3.70
2023-05-05T02:27:22.859Z,3.60
2023-05-05T02:30:11.053Z,3.50
2023-05-05T02:33:05.611Z,3.88
2023-05-05T02:35:53.199Z,3.72
2023-05-05T02:38:42.799Z,3.90
2023-05-05T02:41:30.143Z,3.88
2023-05-05T02:44:16.705Z,3.88
2023-05-05T02:47:03.847Z,3.83
2023-05-05T02:49:48.925Z,3.95
2023-05-05T02:52:34.982Z,3.40
2023-05-05T02:55:20.284Z,4.30
2023-05-05T02:58:07.571Z,4.00
2023-05-05T03:01:01.497Z,4.15
2023-05-05T03:03:59.350Z,3.70
2023-05-05T03:06:48.930Z,3.87
2023-05-05T03:09:39.741Z,3.88
2023-05-05T03:12:30.389Z,3.92
2023-05-05T03:15:15.891Z,3.60
2023-05-05T03:18:03.059Z,3.60
2023-05-05T03:20:48.533Z,3.97
2023-05-05T03:23:35.477Z,4.00
2023-05-05T03:26:20.576Z,4.47
2023-05-05T03:29:06.736Z,3.70
2023-05-05T03:31:51.497Z,3.85
2023-05-05T03:34:37.603Z,3.77
2023-05-05T03:37:22.474Z,3.92
2023-05-05T03:40:08.204Z,4.28
2023-05-05T03:42:53.596Z,4.30
2023-05-05T03:45:38.624Z,4.07
2023-05-05T03:48:23.403Z,4.00
2023-05-05T03:51:08.766Z,4.18
2023-05-05T03:53:53.622Z,4.40
2023-05-05T03:56:38.372Z,4.30
2023-05-05T03:59:23.556Z,3.83
2023-05-05T04:02:08.543Z,4.13
2023-05-05T04:04:53.739Z,4.25
2023-05-05T04:07:38.600Z,4.53
2023-05-05T04:10:23.845Z,4.18
2023-05-05T04:13:08.733Z,4.10
2023-05-05T04:15:53.822Z,4.17
2023-05-05T04:18:38.637Z,4.45
2023-05-05T04:21:23.725Z,4.47
2023-05-05T04:24:08.552Z,4.22
2023-05-05T04:26:53.870Z,4.70
2023-05-05T04:29:38.826Z,3.73
2023-05-05T04:32:24.052Z,4.28
2023-05-05T04:35:09.097Z,4.10
2023-05-05T04:37:54.756Z,4.60
2023-05-05T04:40:41.148Z,3.95
2023-05-05T04:43:26.009Z,4.50
2023-05-05T04:46:10.902Z,4.50
2023-05-05T04:48:56.041Z,4.35
2023-05-05T04:51:42.244Z,4.10
2023-05-05T04:54:27.196Z,4.05
2023-05-05T04:57:11.911Z,4.27
2023-05-05T04:59:57.110Z,3.97
2023-05-05T05:02:42.385Z,4.10
2023-05-05T05:05:27.572Z,4.25
2023-05-05T05:08:12.528Z,4.60
2023-05-05T05:10:58.486Z,4.17
2023-05-05T05:13:43.369Z,4.22
2023-05-05T05:16:28.550Z,4.50
2023-05-05T05:19:13.809Z,4.60
2023-05-05T05:21:58.929Z,5.05
2023-05-05T05:24:43.983Z,4.13
2023-05-05T05:27:29.055Z,4.70
2023-05-05T05:30:14.442Z,4.35
2023-05-05T05:32:59.420Z,4.50
2023-05-05T05:35:44.264Z,4.80
2023-05-05T05:38:28.988Z,4.80
2023-05-05T05:41:13.909Z,4.75
2023-05-05T05:43:58.941Z,4.63
2023-05-05T05:46:44.091Z,4.20
2023-05-05T05:49:29.186Z,4.85
2023-05-05T05:52:13.880Z,4.60
2023-05-05T05:54:58.943Z,4.57
2023-05-05T05:57:43.781Z,4.60
2023-05-05T06:00:28.947Z,4.40
2023-05-05T06:03:14.282Z,4.80
2023-05-05T06:05:59.789Z,4.70
2023-05-05T06:08:44.804Z,4.40
2023-05-05T06:11:30.074Z,4.28
2023-05-05T06:14:14.955Z,4.57
2023-05-05T06:17:00.135Z,4.18
2023-05-05T06:19:45.066Z,4.37
2023-05-05T06:22:30.238Z,4.40
2023-05-05T06:25:15.036Z,4.50
2023-05-05T06:28:00.222Z,4.32
2023-05-05T06:30:45.603Z,4.15
2023-05-05T06:33:30.397Z,4.77
2023-05-05T06:36:15.160Z,5.28
2023-05-05T06:39:00.404Z,5.65
2023-05-05T06:41:45.407Z,4.53
2023-05-05T06:44:31.087Z,4.72
2023-05-05T06:47:16.022Z,5.87
2023-05-05T06:50:00.920Z,6.05
2023-05-05T06:52:46.058Z,4.25
2023-05-05T06:55:31.468Z,4.57
2023-05-05T06:58:16.280Z,4.55
2023-05-05T07:01:01.564Z,4.07
2023-05-05T07:03:46.474Z,4.78
2023-05-05T07:06:31.998Z,4.78
2023-05-05T07:09:17.526Z,5.10
2023-05-05T07:12:03.551Z,4.93
2023-05-05T07:14:48.364Z,5.20
2023-05-05T07:17:33.248Z,5.25
2023-05-05T07:20:18.110Z,5.20
2023-05-05T07:23:03.094Z,5.47
2023-05-05T07:25:48.659Z,4.88
2023-05-05T07:28:34.612Z,5.57
2023-05-05T07:31:19.764Z,4.97
2023-05-05T07:34:04.954Z,5.88
2023-05-05T07:36:50.199Z,5.63
2023-05-05T07:39:35.032Z,5.70
2023-05-05T07:42:21.001Z,5.60
2023-05-05T07:45:06.906Z,5.40
2023-05-05T07:47:51.931Z,5.90
2023-05-05T07:50:36.967Z,5.72
2023-05-05T07:53:22.012Z,6.25
2023-05-05T07:56:08.623Z,6.50
2023-05-05T07:58:53.799Z,7.10
2023-05-05T08:01:39.681Z,7.57
2023-05-05T08:04:24.603Z,7.60
2023-05-05T08:07:10.469Z,6.65
2023-05-05T08:09:55.240Z,6.93
2023-05-05T08:12:40.365Z,6.60
2023-05-05T08:15:25.676Z,6.60
2023-05-05T08:18:10.673Z,7.05
2023-05-05T08:20:56.000Z,6.07
2023-05-05T08:23:40.902Z,4.93
2023-05-05T08:26:26.081Z,5.10
2023-05-05T08:29:11.457Z,6.40
2023-05-05T08:31:56.453Z,5.35
2023-05-05T08:34:41.370Z,5.57
2023-05-05T08:37:26.342Z,5.47
2023-05-05T08:40:15.945Z,5.72
2023-05-05T08:43:01.355Z,7.20
2023-05-05T08:45:46.973Z,8.20
2023-05-05T08:48:33.563Z,7.88
2023-05-05T08:51:20.153Z,7.03
2023-05-05T08:54:06.824Z,7.40
2023-05-05T08:56:52.596Z,7.80
2023-05-05T08:59:38.159Z,7.53
2023-05-05T09:02:28.323Z,6.88
2023-05-05T09:05:13.906Z,6.53
2023-05-05T09:07:58.945Z,6.57
2023-05-05T09:10:44.535Z,6.95
2023-05-05T09:13:32.770Z,6.03
2023-05-05T09:16:17.499Z,6.95
2023-05-05T09:19:05.851Z,6.73
2023-05-05T09:21:51.029Z,6.82
2023-05-05T09:24:36.082Z,7.63
2023-05-05T09:27:22.872Z,7.40
2023-05-05T09:30:09.971Z,7.65
2023-05-05T09:32:55.478Z,8.00
2023-05-05T09:35:54.479Z,7.60
2023-05-05T09:38:39.200Z,7.82
2023-05-05T09:41:41.446Z,7.10
2023-05-05T09:44:37.251Z,7.68
2023-05-05T09:47:34.849Z,7.20
2023-05-05T09:50:20.315Z,9.07
2023-05-05T09:53:05.094Z,7.05
2023-05-05T09:56:00.489Z,6.50
2023-05-05T09:58:45.919Z,3.70
2023-05-05T10:01:31.036Z,3.22
2023-05-05T10:04:30.153Z,3.63
2023-05-05T10:07:24.813Z,6.82
2023-05-05T10:10:12.260Z,6.10
2023-05-05T10:12:58.469Z,3.83
2023-05-05T10:15:45.597Z,3.67
2023-05-05T10:18:32.423Z,4.17
2023-05-05T10:21:20.496Z,4.78
2023-05-05T10:24:17.445Z,3.78
2023-05-05T10:27:19.530Z,5.25
2023-05-05T10:30:06.733Z,6.18
2023-05-05T10:33:07.872Z,5.20
2023-05-05T10:36:01.445Z,5.10
2023-05-05T10:38:46.513Z,5.35
2023-05-05T10:41:33.204Z,4.35
2023-05-05T10:44:19.248Z,4.40
2023-05-05T10:47:05.757Z,4.87
2023-05-05T10:50:03.861Z,4.50
2023-05-05T10:52:58.247Z,5.78
2023-05-05T10:56:00.397Z,5.38
2023-05-05T10:58:59.165Z,3.95
2023-05-05T11:01:45.815Z,3.93
2023-05-05T11:04:31.058Z,3.40
2023-05-05T11:07:21.214Z,3.33
2023-05-05T11:10:08.055Z,2.72
2023-05-05T11:13:02.832Z,1.50
2023-05-05T11:15:49.285Z,0.90
2023-05-05T11:18:44.173Z,0.47
2023-05-05T11:21:29.183Z,0.90
2023-05-05T11:24:33.241Z,0.82
2023-05-05T11:27:18.625Z,0.63
2023-05-05T11:30:03.580Z,0.83
2023-05-05T11:33:30.953Z,0.70
2023-05-05T11:36:17.701Z,0.80
2023-05-05T11:39:22.838Z,0.80
2023-05-05T11:42:23.192Z,1.00
2023-05-05T11:45:22.990Z,1.00
2023-05-05T11:48:26.988Z,1.00
2023-05-05T11:51:13.634Z,1.13
2023-05-05T11:53:59.314Z,1.35
2023-05-05T11:56:55.173Z,1.30
2023-05-05T12:00:08.966Z,1.27
2023-05-05T12:02:57.406Z,1.70
2023-05-05T12:05:42.760Z,1.45
2023-05-05T12:08:28.422Z,1.60
2023-05-05T12:11:13.305Z,1.75
2023-05-05T12:14:11.426Z,2.23
2023-05-05T12:17:05.625Z,2.63
2023-05-05T12:19:53.480Z,2.53
2023-05-05T12:22:39.525Z,3.30
2023-05-05T12:25:24.633Z,3.97
2023-05-05T12:28:09.741Z,3.10
2023-05-05T12:30:58.731Z,2.97
2023-05-05T12:33:44.183Z,3.35
2023-05-05T12:36:30.687Z,3.53
2023-05-05T12:39:16.105Z,3.85
2023-05-05T12:42:05.199Z,3.70
2023-05-05T12:44:50.131Z,3.72
2023-05-05T12:47:36.696Z,3.90
2023-05-05T12:50:34.009Z,3.67
2023-05-05T12:53:26.136Z,4.10
2023-05-05T12:56:34.700Z,4.23
2023-05-05T12:59:22.218Z,4.53
2023-05-05T13:02:08.196Z,4.15
2023-05-05T13:04:54.003Z,4.15
2023-05-05T13:07:52.233Z,4.18
2023-05-05T13:10:37.554Z,4.17
2023-05-05T13:13:22.498Z,4.05
2023-05-05T13:16:07.785Z,4.20
2023-05-05T13:18:53.522Z,3.80
2023-05-05T13:21:38.618Z,4.45
2023-05-05T13:24:38.180Z,4.50
2023-05-05T13:27:29.830Z,4.40
2023-05-05T13:30:14.866Z,4.20
2023-05-05T13:33:00.023Z,3.42
2023-05-05T13:35:45.215Z,3.72
2023-05-05T13:38:32.899Z,3.90
2023-05-05T13:41:18.463Z,3.40
2023-05-05T13:44:03.648Z,3.38
2023-05-05T13:46:48.920Z,3.22
2023-05-05T13:49:34.985Z,3.47
2023-05-05T13:52:20.115Z,3.43
2023-05-05T13:55:05.837Z,3.40
2023-05-05T13:57:51.522Z,3.38
2023-05-05T14:00:37.725Z,3.55
2023-05-05T14:03:23.706Z,2.97
2023-05-05T14:06:09.068Z,3.00
2023-05-05T14:08:54.039Z,3.15
2023-05-05T14:11:38.909Z,3.20
2023-05-05T14:14:23.808Z,3.38
2023-05-05T14:17:09.086Z,2.97
2023-05-05T14:19:53.793Z,2.90
2023-05-05T14:22:38.661Z,2.90
2023-05-05T14:25:23.686Z,2.80
2023-05-05T14:28:08.627Z,2.60
2023-05-05T14:30:53.714Z,3.03
2023-05-05T14:33:38.556Z,2.90
2023-05-05T14:36:23.727Z,3.08
2023-05-05T14:39:08.796Z,2.90
2023-05-05T14:41:53.502Z,3.30
2023-05-05T14:44:38.322Z,8.05
2023-05-05T14:47:24.369Z,3.40
2023-05-05T14:50:10.091Z,3.35
2023-05-05T14:52:55.339Z,3.63
2023-05-05T14:55:40.178Z,3.53
2023-05-05T14:58:25.247Z,3.63
2023-05-05T15:01:10.070Z,3.70
2023-05-05T15:03:55.636Z,3.45
2023-05-05T15:06:40.828Z,1.55
2023-05-05T15:09:26.125Z,1.30
2023-05-05T15:12:10.962Z,1.20
2023-05-05T15:14:56.302Z,1.00
2023-05-05T15:17:41.634Z,1.30
2023-05-05T15:20:26.877Z,1.23
2023-05-05T15:23:12.073Z,1.10
2023-05-05T15:25:57.238Z,1.00
2023-05-05T15:28:42.250Z,0.90
2023-05-05T15:31:27.295Z,1.00
2023-05-05T15:34:12.265Z,0.90
2023-05-05T15:36:57.281Z,1.00
2023-05-05T15:39:42.168Z,1.45
2023-05-05T15:42:27.155Z,1.10
2023-05-05T15:45:12.173Z,1.00
2023-05-05T15:47:57.462Z,1.00
2023-05-05T15:50:42.176Z,0.90
2023-05-05T15:53:27.512Z,1.05
2023-05-05T15:56:12.541Z,1.27
2023-05-05T15:58:57.506Z,1.20
2023-05-05T16:01:42.612Z,1.35
2023-05-05T16:04:28.070Z,1.02
2023-05-05T16:07:13.281Z,1.30
2023-05-05T16:09:58.014Z,1.70
2023-05-05T16:12:43.264Z,1.55
2023-05-05T16:15:27.975Z,1.58
2023-05-05T16:18:13.190Z,1.35
2023-05-05T16:20:57.910Z,1.30
2023-05-05T16:23:43.408Z,1.20
2023-05-05T16:26:29.018Z,1.70
2023-05-05T16:29:14.032Z,1.50
2023-05-05T16:31:59.212Z,1.65
2023-05-05T16:34:44.243Z,1.90
2023-05-05T16:37:29.162Z,2.30
2023-05-05T16:40:14.238Z,1.75
2023-05-05T16:42:58.896Z,1.67
2023-05-05T16:45:43.914Z,1.30
2023-05-05T16:48:28.787Z,1.40
2023-05-05T16:51:14.083Z,1.10
2023-05-05T16:53:59.103Z,1.60
2023-05-05T16:56:44.258Z,1.40
2023-05-05T16:59:31.397Z,1.55
2023-05-05T17:02:16.891Z,1.60
2023-05-05T17:05:02.401Z,1.13
2023-05-05T17:07:50.215Z,1.30
2023-05-05T17:10:35.010Z,1.30
2023-05-05T17:13:19.877Z,1.15
2023-05-05T17:16:04.872Z,0.90
2023-05-05T17:18:49.984Z,1.03
2023-05-05T17:21:35.036Z,1.00
2023-05-05T17:24:20.654Z,1.27
2023-05-05T17:27:05.911Z,1.20
2023-05-05T17:29:51.643Z,1.48
2023-05-05T17:32:37.035Z,1.60
2023-05-05T17:35:22.267Z,1.38
2023-05-05T17:38:07.571Z,1.80
2023-05-05T17:40:52.749Z,2.30
2023-05-05T17:43:37.549Z,2.05
2023-05-05T17:46:22.774Z,1.60
2023-05-05T17:49:07.691Z,1.60
2023-05-05T17:51:52.817Z,2.00
2023-05-05T17:54:37.698Z,1.90
2023-05-05T17:57:22.995Z,1.70
2023-05-05T18:00:08.857Z,1.93
2023-05-05T18:02:53.898Z,1.88
2023-05-05T18:05:39.102Z,1.90
2023-05-05T18:08:25.079Z,1.48
2023-05-05T18:11:10.543Z,1.98
2023-05-05T18:13:55.852Z,1.83
2023-05-05T18:16:43.664Z,2.00
2023-05-05T18:19:28.457Z,2.45
2023-05-05T18:22:13.794Z,2.85
2023-05-05T18:24:59.605Z,4.28
2023-05-05T18:27:45.089Z,4.00
2023-05-05T18:30:30.300Z,4.22
2023-05-05T18:33:15.249Z,4.00
2023-05-05T18:36:02.179Z,5.40
2023-05-05T18:38:47.228Z,5.15
2023-05-05T18:41:32.149Z,5.40
2023-05-05T18:44:18.780Z,4.80
2023-05-05T18:47:03.986Z,4.80
2023-05-05T18:49:49.656Z,4.90
2023-05-05T18:52:34.695Z,5.45
2023-05-05T18:55:19.563Z,5.20
2023-05-05T18:58:04.728Z,5.10
2023-05-05T19:00:50.734Z,5.05
2023-05-05T19:03:35.497Z,5.43
2023-05-05T19:06:20.374Z,5.10
2023-05-05T19:09:05.685Z,5.13
2023-05-05T19:11:50.853Z,5.50
2023-05-05T19:14:36.005Z,5.50
2023-05-05T19:17:21.172Z,5.65
2023-05-05T19:20:06.815Z,6.45
2023-05-05T19:22:51.824Z,6.60
2023-05-05T19:25:36.826Z,7.03
2023-05-05T19:28:21.945Z,6.85
2023-05-05T19:31:07.145Z,7.05
2023-05-05T19:33:51.896Z,6.38
2023-05-05T19:36:38.063Z,6.47
2023-05-05T19:39:22.778Z,6.00
2023-05-05T19:42:07.930Z,6.40
2023-05-05T19:44:52.880Z,6.70
2023-05-05T19:47:38.063Z,6.80
2023-05-05T19:50:22.997Z,6.93
2023-05-05T19:53:07.890Z,6.70
2023-05-05T19:55:52.726Z,7.22
2023-05-05T19:58:56.274Z,6.53
2023-05-05T20:01:41.421Z,7.18
2023-05-05T20:04:26.731Z,6.40
2023-05-05T20:07:11.542Z,6.68
2023-05-05T20:09:56.826Z,6.97
2023-05-05T20:12:48.151Z,6.53
2023-05-05T20:15:33.592Z,8.52
2023-05-05T20:18:18.545Z,8.70
2023-05-05T20:21:03.640Z,8.80
2023-05-05T20:23:48.824Z,8.32
2023-05-05T20:26:33.928Z,7.60
2023-05-05T20:29:20.066Z,7.43
2023-05-05T20:32:05.734Z,7.00
2023-05-05T20:34:50.725Z,7.10
2023-05-05T20:37:35.713Z,7.18
2023-05-05T20:40:20.894Z,6.82
2023-05-05T20:43:05.838Z,6.53
2023-05-05T20:45:51.655Z,6.90
2023-05-05T20:48:38.219Z,6.28
2023-05-05T20:51:29.085Z,6.85
2023-05-05T20:54:14.164Z,6.35
2023-05-05T20:56:59.239Z,6.53
2023-05-05T20:59:44.192Z,6.83
2023-05-05T21:02:29.221Z,7.28
2023-05-05T21:05:14.648Z,6.63
2023-05-05T21:08:01.149Z,6.43
2023-05-05T21:10:46.331Z,7.13
2023-05-05T21:13:31.923Z,7.83
2023-05-05T21:16:17.066Z,8.13
2023-05-05T21:19:02.252Z,7.65
2023-05-05T21:21:47.759Z,7.65
2023-05-05T21:24:32.600Z,7.00
2023-05-05T21:27:17.800Z,7.47
2023-05-05T21:30:02.693Z,7.80
2023-05-05T21:32:47.713Z,7.70
2023-05-05T21:35:32.779Z,8.18
2023-05-05T21:38:17.930Z,8.18
2023-05-05T21:41:03.608Z,8.43
2023-05-05T21:43:48.599Z,8.20
2023-05-05T21:46:33.893Z,9.07
2023-05-05T21:49:18.726Z,8.60
2023-05-05T21:52:03.938Z,8.75
2023-05-05T21:54:49.095Z,8.40
2023-05-05T21:57:34.060Z,8.43
2023-05-05T22:00:19.398Z,8.55
2023-05-05T22:03:04.882Z,8.90
2023-05-05T22:05:50.027Z,8.82
2023-05-05T22:08:34.866Z,9.20
2023-05-05T22:11:19.779Z,9.02
2023-05-05T22:14:04.732Z,8.45
2023-05-05T22:16:49.706Z,9.40
2023-05-05T22:19:34.895Z,8.95
2023-05-05T22:22:19.529Z,8.80
2023-05-05T22:25:05.773Z,9.82
2023-05-05T22:27:50.558Z,9.52
2023-05-05T22:30:35.893Z,8.90
2023-05-05T22:33:21.498Z,9.52
2023-05-05T22:36:08.780Z,9.17
2023-05-05T22:38:54.011Z,9.90
2023-05-05T22:41:38.800Z,9.45
2023-05-05T22:44:23.866Z,9.30
2023-05-05T22:47:09.058Z,10.25
2023-05-05T22:49:54.147Z,9.57
2023-05-05T22:52:39.038Z,9.77
2023-05-05T22:55:24.665Z,10.05
2023-05-05T22:58:09.940Z,9.80
2023-05-05T23:00:55.006Z,9.07
2023-05-05T23:03:39.774Z,10.20
2023-05-05T23:06:24.558Z,9.68
2023-05-05T23:09:09.632Z,10.10
2023-05-05T23:11:54.305Z,9.52
2023-05-05T23:14:39.506Z,9.70
2023-05-05T23:17:24.462Z,9.80
2023-05-05T23:20:11.907Z,9.63
2023-05-05T23:22:56.947Z,9.85
2023-05-05T23:25:42.102Z,9.80
2023-05-05T23:28:27.003Z,9.70
2023-05-05T23:31:12.200Z,10.40
2023-05-05T23:33:57.114Z,10.05
2023-05-05T23:36:42.021Z,10.30
2023-05-05T23:39:27.106Z,9.40
2023-05-05T23:42:12.386Z,10.30
2023-05-05T23:44:57.127Z,9.37
2023-05-05T23:47:42.464Z,9.15
2023-05-05T23:50:27.711Z,9.00
2023-05-05T23:53:12.780Z,9.43
2023-05-05T23:55:57.687Z,9.15
2023-05-05T23:58:42.827Z,9.33
